Alvy, West Virginia
Current Conditions -  °F | °C
As of 11:53 PM on Wednesday 22 Oct 2014 (Local Time) from KCKB Reporting Station
Overcast Overcast  
Wind Chill: 44°   Ceiling: 1900
Heat Index: 47°   Visibility: 10mi
Dew Point: 42°   Wind: 6mph
Humidity: 83%   Direction: 330°NNW
Pressure: 30.16"   Gusts: NA
Location:  39.5266°N, 80.6428°W
Report Text: KCKB 230353Z 33005KT 10SM OVC019 08/06 A3016 RMK AO2 SLP211 T00830056
Loading
Personal Weather Stations






























Interactive Weather Map New forecast layout! Learn more

10-Day Weather Forecast

Advertisements
Track Severe Weather on mobile